Time;durP1;ratioP1;P1;durP2;ratioP2;P2;SDS_P1;SDS_P2;PMS_P1;PMS_P2;Temp;Humidity;BMP_temperature;BMP_pressure;BME280_temperature;BME280_humidity;BME280_pressure;Samples;Min_cycle;Max_cycle;Signal;HPM_P1;HPM_P2
2021/03/19 00:00:19;;;;;;;134.97;79.73;;;;;;;-1.29;74.64;98942.84;123874;1102;64931;-82
2021/03/19 00:03:05;;;;;;;129.47;79.17;;;;;;;-1.33;74.54;98945.52;123864;1102;64911;-81
2021/03/19 00:05:32;;;;;;;134.03;76.63;;;;;;;-1.34;74.69;98949.04;123875;1102;64891;-81
2021/03/19 00:07:59;;;;;;;110.03;69.80;;;;;;;-1.33;74.78;98939.44;123863;1102;64909;-82
2021/03/19 00:10:28;;;;;;;115.20;72.70;;;;;;;-1.34;75.01;98938.58;123474;1102;64838;-82
2021/03/19 00:12:56;;;;;;;112.67;74.03;;;;;;;-1.35;75.40;98939.45;123896;1102;64867;-82
2021/03/19 00:15:25;;;;;;;114.00;72.50;;;;;;;-1.36;74.96;98936.89;123852;1102;65017;-81
2021/03/19 00:17:52;;;;;;;114.80;70.90;;;;;;;-1.40;75.14;98936.06;123951;1101;64899;-80
2021/03/19 00:20:19;;;;;;;104.23;66.13;;;;;;;-1.44;75.49;98936.18;123503;1102;64877;-82
2021/03/19 00:22:47;;;;;;;108.10;67.47;;;;;;;-1.48;75.49;98940.58;123537;1105;64991;-82
2021/03/19 00:25:14;;;;;;;114.13;70.63;;;;;;;-1.48;76.33;98942.34;123915;1102;65077;-82
2021/03/19 00:27:42;;;;;;;107.77;68.67;;;;;;;-1.48;76.44;98939.73;123511;1102;65094;-82
2021/03/19 00:30:11;;;;;;;118.57;73.13;;;;;;;-1.50;75.97;98945.00;123840;1102;64909;-82
2021/03/19 00:32:42;;;;;;;113.00;68.77;;;;;;;-1.55;76.50;98944.23;123880;1101;64965;-81
2021/03/19 00:35:10;;;;;;;127.67;78.50;;;;;;;-1.59;76.63;98955.61;123510;1101;65065;-81
2021/03/19 00:37:37;;;;;;;143.63;81.67;;;;;;;-1.58;76.34;98952.09;123503;1102;65075;-80
2021/03/19 00:40:11;;;;;;;139.43;80.03;;;;;;;-1.57;77.25;98941.63;123828;1101;64911;-81
2021/03/19 00:42:39;;;;;;;139.63;79.93;;;;;;;-1.54;76.76;98951.16;123545;1102;64933;-82
2021/03/19 00:45:07;;;;;;;134.45;76.30;;;;;;;-1.53;76.42;98944.18;123910;1102;64962;-82
2021/03/19 00:47:34;;;;;;;121.57;74.30;;;;;;;-1.57;76.84;98941.63;123856;1102;64908;-82
2021/03/19 00:50:01;;;;;;;114.17;70.10;;;;;;;-1.62;77.36;98934.77;123511;1102;64985;-82
2021/03/19 00:52:27;;;;;;;108.87;69.00;;;;;;;-1.68;76.75;98937.51;123497;1102;64991;-80
2021/03/19 00:54:54;;;;;;;112.23;70.50;;;;;;;-1.76;77.50;98935.03;123493;1102;64917;-81
2021/03/19 00:57:20;;;;;;;118.47;71.73;;;;;;;-1.82;77.70;98928.17;123851;1102;64892;-82
2021/03/19 00:59:46;;;;;;;120.87;71.33;;;;;;;-1.83;77.55;98930.80;123893;1102;64902;-82
2021/03/19 01:02:13;;;;;;;113.00;72.90;;;;;;;-1.86;77.81;98929.11;123487;1102;65070;-81
2021/03/19 01:04:39;;;;;;;118.50;70.43;;;;;;;-1.88;77.65;98930.88;123864;1102;64908;-81
2021/03/19 01:07:05;;;;;;;129.80;71.23;;;;;;;-1.91;77.91;98925.71;123879;1102;65036;-82
2021/03/19 01:09:32;;;;;;;117.30;71.60;;;;;;;-1.94;78.15;98922.30;123508;1102;64888;-81
2021/03/19 01:11:59;;;;;;;119.08;70.90;;;;;;;-1.98;77.47;98921.48;123846;1102;64939;-82
2021/03/19 01:14:25;;;;;;;118.43;73.57;;;;;;;-1.98;78.12;98926.70;123824;1102;65084;-81
2021/03/19 01:16:51;;;;;;;118.73;73.37;;;;;;;-2.01;77.81;98925.00;123521;1101;64882;-82
2021/03/19 01:19:18;;;;;;;121.00;74.47;;;;;;;-2.02;77.60;98932.88;123870;1102;64947;-82
2021/03/19 01:21:44;;;;;;;114.80;71.50;;;;;;;-2.05;78.07;98925.11;123814;1102;64873;-82
2021/03/19 01:24:11;;;;;;;119.43;70.80;;;;;;;-2.09;77.60;98923.42;123812;1102;65004;-80
2021/03/19 01:26:37;;;;;;;117.87;73.37;;;;;;;-2.13;77.14;98930.45;123844;1102;65324;-81
2021/03/19 01:29:06;;;;;;;117.63;71.73;;;;;;;-2.18;77.31;98927.06;123882;1102;64888;-81
2021/03/19 01:31:32;;;;;;;122.15;74.20;;;;;;;-2.17;77.57;98927.91;123850;1102;64905;-81
2021/03/19 01:34:00;;;;;;;108.90;70.20;;;;;;;-2.21;77.81;98929.72;123516;1102;64894;-81
2021/03/19 01:36:27;;;;;;;112.07;72.37;;;;;;;-2.26;77.13;98924.57;123806;1102;64828;-81
2021/03/19 01:38:55;;;;;;;121.80;69.50;;;;;;;-2.31;77.30;98925.54;123812;1102;64911;-81
2021/03/19 01:41:22;;;;;;;108.45;67.60;;;;;;;-2.39;77.66;98930.88;123502;1102;64909;-81
2021/03/19 01:43:59;;;;;;;116.85;68.95;;;;;;;-2.41;78.09;98932.64;123834;1102;64940;-81
2021/03/19 01:47:04;;;;;;;117.67;69.90;;;;;;;-2.43;77.81;98922.21;123829;1102;64960;-82
2021/03/19 01:50:08;;;;;;;119.37;69.10;;;;;;;-2.41;78.40;98927.42;123830;1101;64912;-81
2021/03/19 01:53:11;;;;;;;128.03;74.80;;;;;;;-2.38;78.30;98924.76;123844;1102;64920;-81
2021/03/19 01:56:17;;;;;;;117.07;70.33;;;;;;;-2.32;77.56;98929.02;123811;1102;64911;-81
2021/03/19 01:59:20;;;;;;;120.77;72.20;;;;;;;-2.35;77.82;98919.48;123592;1102;65243;-81
2021/03/19 02:02:25;;;;;;;108.13;66.27;;;;;;;-2.35;77.30;98921.23;123919;1102;65014;-81
2021/03/19 02:05:29;;;;;;;110.67;67.43;;;;;;;-2.39;77.83;98914.36;123808;1102;64896;-81
2021/03/19 02:08:33;;;;;;;116.90;71.33;;;;;;;-2.43;77.42;98910.92;123813;1102;64946;-81
2021/03/19 02:11:37;;;;;;;121.23;74.43;;;;;;;-2.39;77.51;98917.83;123855;1102;64949;-81
2021/03/19 02:14:41;;;;;;;118.13;70.17;;;;;;;-2.33;78.05;98914.25;123845;1101;65032;-80
2021/03/19 02:17:45;;;;;;;115.23;70.10;;;;;;;-2.41;77.63;98922.20;123883;1102;64905;-80
2021/03/19 02:20:50;;;;;;;126.73;75.93;;;;;;;-2.55;77.90;98919.81;123814;1102;64902;-81
2021/03/19 02:23:54;;;;;;;131.80;85.85;;;;;;;-2.60;78.55;98924.23;123809;1102;64982;-83
2021/03/19 02:26:58;;;;;;;134.85;82.10;;;;;;;-2.61;78.68;98924.25;123835;1102;64908;-82
2021/03/19 02:30:03;;;;;;;134.07;83.07;;;;;;;-2.57;78.67;98921.58;123862;1101;65211;-81
2021/03/19 02:32:30;;;;;;;142.53;88.93;;;;;;;-2.54;78.32;98925.89;123857;1102;65343;-81
2021/03/19 02:34:59;;;;;;;160.17;96.67;;;;;;;-2.52;78.61;98917.16;123478;1102;64956;-81
2021/03/19 02:37:32;;;;;;;134.20;87.13;;;;;;;-2.47;78.02;98920.55;123799;1102;65296;-81
2021/03/19 02:39:59;;;;;;;140.83;88.27;;;;;;;-2.39;78.42;98909.14;123813;1102;65021;-81
2021/03/19 02:42:29;;;;;;;134.67;81.90;;;;;;;-2.35;78.08;98916.02;123489;1102;64975;-81
2021/03/19 02:44:56;;;;;;;129.40;81.40;;;;;;;-2.32;78.83;98919.43;123893;1101;64911;-81
2021/03/19 02:47:22;;;;;;;142.10;89.55;;;;;;;-2.31;78.45;98918.56;123489;1102;64921;-81
2021/03/19 02:49:49;;;;;;;134.97;88.07;;;;;;;-2.30;78.25;98922.03;123818;1102;65001;-81
2021/03/19 02:52:18;;;;;;;141.03;90.07;;;;;;;-2.22;78.09;98918.39;123514;1101;64966;-82
2021/03/19 02:54:44;;;;;;;132.00;83.03;;;;;;;-2.18;78.40;98908.78;123813;1102;64908;-81
2021/03/19 02:57:11;;;;;;;133.73;85.93;;;;;;;-2.15;78.68;98911.34;123804;1102;64982;-82
2021/03/19 02:59:37;;;;;;;131.23;80.37;;;;;;;-2.19;78.28;98919.23;123875;1100;64911;-82
2021/03/19 03:02:03;;;;;;;119.80;74.63;;;;;;;-2.22;77.79;98918.39;123801;1102;65042;-81
2021/03/19 03:04:30;;;;;;;132.50;80.93;;;;;;;-2.27;78.01;98921.97;123880;1102;64908;-80
2021/03/19 03:06:58;;;;;;;125.83;81.40;;;;;;;-2.34;77.66;98918.62;123900;1102;64937;-82
2021/03/19 03:09:29;;;;;;;132.23;84.10;;;;;;;-2.40;78.02;98923.91;123829;1101;64908;-81
2021/03/19 03:11:57;;;;;;;118.83;75.50;;;;;;;-2.47;77.36;98924.92;123841;1102;64882;-81
2021/03/19 03:14:26;;;;;;;130.10;77.83;;;;;;;-2.52;77.81;98931.95;123866;1102;64933;-81
2021/03/19 03:16:56;;;;;;;131.63;81.87;;;;;;;-2.52;77.90;98927.59;123919;1102;64889;-82
2021/03/19 03:19:23;;;;;;;124.78;80.53;;;;;;;-2.52;78.58;98927.59;123866;1102;64889;-81
2021/03/19 03:21:51;;;;;;;133.07;84.43;;;;;;;-2.52;78.39;98927.59;123865;1102;64885;-82
2021/03/19 03:24:18;;;;;;;140.20;83.87;;;;;;;-2.54;78.94;98929.36;123508;1102;64934;-82
2021/03/19 03:26:44;;;;;;;141.70;87.25;;;;;;;-2.53;78.18;98931.06;123460;1104;64869;-83
2021/03/19 03:29:12;;;;;;;138.17;82.37;;;;;;;-2.52;78.57;98919.77;123496;1102;64975;-80
2021/03/19 03:31:40;;;;;;;147.80;88.80;;;;;;;-2.49;78.74;98924.08;123833;1102;64882;-80
2021/03/19 03:34:07;;;;;;;137.60;80.40;;;;;;;-2.45;78.95;98928.34;123864;1102;64962;-81
2021/03/19 03:36:35;;;;;;;136.00;80.67;;;;;;;-2.45;79.76;98924.01;123471;1102;65004;-82
2021/03/19 03:39:06;;;;;;;143.17;82.03;;;;;;;-2.42;79.01;98925.71;123436;1102;64888;-82
2021/03/19 03:41:32;;;;;;;117.73;70.93;;;;;;;-2.39;80.02;98930.02;123902;1102;64911;-82
2021/03/19 03:43:59;;;;;;;130.50;77.77;;;;;;;-2.41;79.94;98923.95;123841;1102;64889;-82
2021/03/19 03:46:28;;;;;;;129.80;75.40;;;;;;;-2.39;79.27;98927.41;123456;1102;64991;-82
2021/03/19 03:48:57;;;;;;;132.93;78.60;;;;;;;-2.36;79.97;98920.38;123832;1102;64934;-81
2021/03/19 03:51:25;;;;;;;136.50;76.33;;;;;;;-2.37;79.82;98925.61;123868;1102;65064;-82
2021/03/19 03:53:53;;;;;;;140.90;78.43;;;;;;;-2.38;79.38;98935.20;123815;1102;64972;-81
2021/03/19 03:56:21;;;;;;;144.03;81.33;;;;;;;-2.36;80.34;98925.60;123832;1100;65017;-82
2021/03/19 03:58:47;;;;;;;129.00;75.37;;;;;;;-2.36;80.18;98929.97;123850;1101;64863;-82
2021/03/19 04:01:14;;;;;;;116.03;66.47;;;;;;;-2.38;80.07;98927.37;123493;1102;64965;-81
2021/03/19 04:03:40;;;;;;;126.07;69.23;;;;;;;-2.39;80.67;98927.41;123497;1102;64947;-81
2021/03/19 04:06:07;;;;;;;140.97;76.53;;;;;;;-2.37;80.65;98929.11;123484;1102;64991;-81
2021/03/19 04:08:34;;;;;;;125.10;70.27;;;;;;;-2.33;81.27;98930.77;123445;1102;65255;-81
2021/03/19 04:11:06;;;;;;;116.13;63.93;;;;;;;-2.30;81.32;98925.49;123464;1102;64885;-81
2021/03/19 04:13:33;;;;;;;103.53;58.87;;;;;;;-2.29;81.60;98924.63;123492;1103;64965;-81
2021/03/19 04:16:00;;;;;;;128.45;70.75;;;;;;;-2.32;81.27;98929.87;123491;1102;65054;-82
2021/03/19 04:18:28;;;;;;;110.47;62.17;;;;;;;-2.29;81.57;98926.34;123809;1102;64963;-82
2021/03/19 04:20:58;;;;;;;113.80;64.03;;;;;;;-2.32;80.59;98926.41;123838;1102;64931;-82
2021/03/19 04:23:25;;;;;;;;;;;;;;;-2.28;81.01;98922.88;123905;1102;64894;-82
2021/03/19 04:25:52;;;;;;;116.67;61.53;;;;;;;-2.30;81.12;98922.03;123811;1102;64950;-81
2021/03/19 04:28:22;;;;;;;117.23;66.07;;;;;;;-2.33;81.27;98922.94;123823;1102;64895;-82
2021/03/19 04:30:49;;;;;;;122.90;68.07;;;;;;;-2.34;81.91;98928.17;123884;1102;64947;-81
2021/03/19 04:33:22;;;;;;;117.20;68.10;;;;;;;-2.35;81.95;98934.28;123825;1102;64933;-80
2021/03/19 04:36:26;;;;;;;134.43;73.90;;;;;;;-2.32;81.69;98926.41;123826;1102;64828;-80
2021/03/19 04:38:57;;;;;;;119.70;66.43;;;;;;;-2.23;81.88;98928.88;123873;1101;64888;-80
2021/03/19 04:41:23;;;;;;;128.43;69.40;;;;;;;-2.20;81.66;98928.83;123824;1102;65033;-82
2021/03/19 04:43:50;;;;;;;120.77;68.77;;;;;;;-2.18;81.12;98926.20;123838;1102;64937;-82
2021/03/19 04:46:16;;;;;;;122.13;71.27;;;;;;;-2.17;80.86;98928.77;123849;1102;64914;-81
2021/03/19 04:48:43;;;;;;;127.43;69.57;;;;;;;-2.13;81.27;98932.17;123818;1102;64930;-82
2021/03/19 04:51:09;;;;;;;123.73;71.27;;;;;;;-2.07;80.64;98934.70;123879;1102;64882;-81
2021/03/19 04:53:35;;;;;;;115.57;65.70;;;;;;;-2.04;81.76;98945.95;123499;1102;64989;-81
2021/03/19 04:56:02;;;;;;;113.63;68.47;;;;;;;-2.08;81.16;98954.73;123467;1102;65006;-82
2021/03/19 04:58:29;;;;;;;120.27;65.13;;;;;;;-2.11;81.09;98949.55;123851;1102;64905;-81
2021/03/19 05:00:55;;;;;;;120.53;67.23;;;;;;;-2.10;80.79;98953.89;123465;1102;64934;-81
2021/03/19 05:03:21;;;;;;;117.73;68.37;;;;;;;-2.12;81.50;98955.66;123827;1102;64911;-81
2021/03/19 05:05:47;;;;;;;120.23;65.80;;;;;;;-2.16;81.15;98959.20;123824;1102;65091;-82
2021/03/19 05:08:14;;;;;;;120.23;67.60;;;;;;;-2.19;81.05;98963.62;123878;1102;64914;-82
2021/03/19 05:10:40;;;;;;;119.50;66.10;;;;;;;-2.23;81.45;98962.81;123814;1102;64914;-82
2021/03/19 05:13:09;;;;;;;105.75;58.50;;;;;;;-2.32;81.33;98963.80;123872;1102;64857;-82
2021/03/19 05:15:37;;;;;;;111.60;61.13;;;;;;;-2.37;81.07;98963.04;123879;1102;64896;-80
2021/03/19 05:18:05;;;;;;;116.30;63.03;;;;;;;-2.36;81.01;98964.75;123509;1102;64940;-81
2021/03/19 05:20:32;;;;;;;115.20;63.23;;;;;;;-2.30;81.71;98962.03;123839;1102;64988;-82
2021/03/19 05:22:59;;;;;;;114.57;61.03;;;;;;;-2.26;81.52;98961.11;123920;1102;65348;-82
2021/03/19 05:25:30;;;;;;;110.83;62.40;;;;;;;-2.24;81.03;98955.85;123892;1102;64914;-82
2021/03/19 05:27:59;;;;;;;122.63;65.80;;;;;;;-2.16;81.28;98955.73;123499;1102;65027;-82
2021/03/19 05:30:26;;;;;;;119.93;64.07;;;;;;;-2.10;80.90;98955.65;123915;1101;64860;-84
2021/03/19 05:32:52;;;;;;;106.63;57.27;;;;;;;-2.04;81.37;98961.62;123528;1102;65004;-81
2021/03/19 05:35:21;;;;;;;111.83;61.87;;;;;;;-2.02;80.30;98961.61;123878;1102;64905;-82
2021/03/19 05:37:50;;;;;;;110.03;60.73;;;;;;;-1.96;80.90;98960.63;123917;1102;64940;-82
2021/03/19 05:40:32;;;;;;;112.93;61.60;;;;;;;-1.87;81.20;98973.52;123539;1102;64891;-82
2021/03/19 05:43:39;;;;;;;108.17;60.03;;;;;;;-1.82;81.10;98966.47;123873;1102;65527;-82
2021/03/19 05:46:14;;;;;;;108.10;60.33;;;;;;;-1.76;80.79;98963.77;123385;1105;65091;-80
2021/03/19 05:49:06;;;;;;;103.50;58.37;;;;;;;-1.75;80.58;98964.63;123510;1102;64950;-82
2021/03/19 05:51:39;;;;;;;107.23;58.60;;;;;;;-1.72;80.24;98972.41;123814;1102;64905;-82
2021/03/19 05:54:20;;;;;;;101.20;57.20;;;;;;;-1.67;80.49;98970.57;123865;1102;64911;-80
2021/03/19 05:56:52;;;;;;;102.50;58.67;;;;;;;-1.67;80.20;98975.80;123517;1102;65372;-80
2021/03/19 05:59:18;;;;;;;104.13;60.37;;;;;;;-1.62;80.44;98977.44;123549;1102;64947;-81
2021/03/19 06:01:45;;;;;;;108.17;59.73;;;;;;;-1.52;80.79;98974.67;123824;1102;64937;-81
2021/03/19 06:04:19;;;;;;;105.20;60.17;;;;;;;-1.44;80.55;98978.00;123901;1102;65324;-81
2021/03/19 06:07:00;;;;;;;98.63;54.33;;;;;;;-1.39;80.16;98984.86;123825;1102;64940;-82
2021/03/19 06:09:40;;;;;;;107.70;57.83;;;;;;;-1.33;79.65;98986.48;123849;1102;64991;-82
2021/03/19 06:12:17;;;;;;;97.03;56.63;;;;;;;-1.24;80.04;98975.84;123527;1102;64894;-82
2021/03/19 06:14:51;;;;;;;101.23;57.43;;;;;;;-1.22;79.64;98984.52;123860;1102;64905;-81
2021/03/19 06:17:30;;;;;;;94.60;53.70;;;;;;;-1.21;79.38;98987.99;123807;1102;64910;-81
2021/03/19 06:20:08;;;;;;;106.30;59.90;;;;;;;-1.12;79.12;98987.83;123827;1102;64908;-81
2021/03/19 06:22:43;;;;;;;110.57;61.17;;;;;;;-0.99;79.08;98986.69;123492;1102;65051;-81
2021/03/19 06:25:14;;;;;;;101.00;56.10;;;;;;;-0.93;78.91;98985.69;123899;1102;64914;-82
2021/03/19 06:27:47;;;;;;;105.07;58.50;;;;;;;-0.93;79.52;98996.16;123846;1102;65010;-82
2021/03/19 06:30:42;;;;;;;105.97;60.43;;;;;;;-0.86;79.48;98987.30;123853;1102;64908;-81
2021/03/19 06:33:11;;;;;;;108.03;60.23;;;;;;;-0.79;78.53;98985.39;123840;1102;64908;-82
2021/03/19 06:36:08;;;;;;;101.80;58.37;;;;;;;-0.68;78.81;98993.91;123834;1102;65001;-82
2021/03/19 06:38:39;;;;;;;99.10;56.00;;;;;;;-0.65;79.02;98995.59;123890;1102;64982;-81
2021/03/19 06:41:26;;;;;;;96.20;56.27;;;;;;;-0.67;77.88;98996.47;123825;1102;64905;-81
2021/03/19 06:44:14;;;;;;;100.17;56.90;;;;;;;-0.56;78.55;98990.14;123868;1102;64879;-81
2021/03/19 06:46:47;;;;;;;104.40;58.77;;;;;;;-0.39;78.50;98989.78;123465;1102;64888;-82
2021/03/19 06:49:15;;;;;;;103.67;57.23;;;;;;;-0.30;78.53;98990.41;123835;1102;64889;-82
2021/03/19 06:51:45;;;;;;;96.13;55.93;;;;;;;-0.26;77.90;98983.37;123520;1102;65100;-81
2021/03/19 06:54:19;;;;;;;97.37;57.77;;;;;;;-0.16;77.83;98991.84;123908;1102;64870;-83
2021/03/19 06:57:12;;;;;;;95.67;55.93;;;;;;;-0.15;77.80;98998.83;123894;1102;64892;-79
2021/03/19 06:59:56;;;;;;;94.57;57.53;;;;;;;-0.13;77.15;98989.15;123816;1102;64984;-82
2021/03/19 07:02:56;;;;;;;95.40;57.77;;;;;;;-0.04;77.15;98997.66;123867;1102;64908;-81
2021/03/19 07:06:20;;;;;;;87.08;52.78;;;;;;;0.13;76.88;98997.27;123504;1101;64905;-81
2021/03/19 07:09:08;;;;;;;95.70;54.73;;;;;;;0.21;77.24;98997.94;123350;1105;64949;-82
2021/03/19 07:12:01;;;;;;;95.67;57.77;;;;;;;0.31;76.39;99000.31;123331;1105;65122;-82
2021/03/19 07:15:10;;;;;;;94.63;56.83;;;;;;;0.37;76.56;99005.38;123769;1102;64997;-82
2021/03/19 07:17:58;;;;;;;99.30;58.40;;;;;;;0.52;76.61;99007.62;123607;1102;64931;-82
2021/03/19 07:21:00;;;;;;;96.17;58.67;;;;;;;0.65;76.57;99001.14;123935;1102;64946;-81
2021/03/19 07:23:34;;;;;;;91.53;56.90;;;;;;;0.88;75.97;99011.02;123814;1102;65017;-81
2021/03/19 07:26:26;;;;;;;94.80;57.95;;;;;;;0.95;75.48;99018.72;123929;1102;64885;-81
2021/03/19 07:29:16;;;;;;;96.67;57.37;;;;;;;0.99;75.08;99015.97;123758;1101;64889;-81
2021/03/19 07:31:54;;;;;;;;;;;;;;;1.02;75.19;99009.78;123909;1102;64995;-81
2021/03/19 07:34:51;;;;;;;98.50;57.27;;;;;;;1.10;74.66;99007.80;123865;1102;64969;-81
2021/03/19 07:37:55;;;;;;;87.87;56.57;;;;;;;1.20;74.46;99004.01;123862;1102;64857;-82
2021/03/19 07:40:25;;;;;;;94.40;57.65;;;;;;;1.28;74.76;99003.78;123864;1102;64905;-82
2021/03/19 07:42:54;;;;;;;103.63;60.50;;;;;;;1.41;74.95;99002.52;123837;1102;64942;-81
2021/03/19 07:45:25;;;;;;;92.50;56.07;;;;;;;1.52;74.67;99004.83;123514;1102;64908;-82
2021/03/19 07:48:42;;;;;;;78.77;51.53;;;;;;;1.60;73.77;99004.59;123837;1102;64879;-82
2021/03/19 07:51:26;;;;;;;85.35;53.85;;;;;;;1.58;73.52;99003.77;123353;1105;65126;-80
2021/03/19 07:54:11;;;;;;;89.23;53.40;;;;;;;1.56;73.37;98997.73;123348;1105;64990;-84
2021/03/19 07:56:41;;;;;;;82.27;50.10;;;;;;;1.65;73.51;98998.29;123710;1102;64864;-82
2021/03/19 07:59:32;;;;;;;74.77;48.03;;;;;;;1.69;72.80;98997.30;123826;1102;64985;-82
2021/03/19 08:02:22;;;;;;;88.40;50.57;;;;;;;1.78;72.85;99001.40;123868;1102;64885;-82
2021/03/19 08:04:51;;;;;;;74.13;48.87;;;;;;;1.88;72.78;99001.98;123835;1102;64905;-82
2021/03/19 08:07:26;;;;;;;74.87;48.77;;;;;;;2.07;72.64;99002.25;124221;1102;64908;-87
2021/03/19 08:10:03;;;;;;;73.57;47.77;;;;;;;2.23;72.57;98998.20;124231;1102;64896;-88
2021/03/19 08:12:38;;;;;;;75.37;47.17;;;;;;;2.34;72.10;99003.10;124577;1102;64744;-89
2021/03/19 08:15:44;;;;;;;79.50;50.40;;;;;;;2.44;72.67;98996.63;124601;1102;64953;-90
2021/03/19 08:18:20;;;;;;;78.97;51.03;;;;;;;2.58;72.16;99002.29;124115;1106;64841;-91
2021/03/19 08:21:23;;;;;;;73.87;46.73;;;;;;;2.72;71.81;99001.81;124099;1102;64907;-88
2021/03/19 08:23:52;;;;;;;80.27;51.23;;;;;;;2.84;71.19;98995.23;124113;1101;64931;-88
2021/03/19 08:26:26;;;;;;;77.87;50.73;;;;;;;3.07;71.55;98984.73;123738;1102;64908;-88
2021/03/19 08:29:03;;;;;;;82.07;52.53;;;;;;;3.23;71.01;98994.71;123907;1102;64902;-88
2021/03/19 08:31:48;;;;;;;76.33;50.53;;;;;;;3.42;71.00;98986.97;123979;1102;65296;-88
2021/03/19 08:34:15;;;;;;;85.57;54.10;;;;;;;3.69;70.77;98988.56;123572;1106;64835;-89
2021/03/19 08:36:53;;;;;;;84.50;51.65;;;;;;;3.84;69.81;98988.86;124012;1102;64902;-88
2021/03/19 08:39:43;;;;;;;82.60;51.73;;;;;;;3.79;68.76;98991.70;123627;1104;64918;-88
2021/03/19 08:42:48;;;;;;;76.10;49.10;;;;;;;3.58;68.64;98992.52;123647;1102;64917;-88
2021/03/19 08:45:27;;;;;;;66.50;43.90;;;;;;;3.49;68.52;99001.64;123929;1102;64985;-89
2021/03/19 08:47:56;;;;;;;66.03;42.13;;;;;;;3.30;67.18;98997.06;123989;1102;64988;-89
2021/03/19 08:50:34;;;;;;;57.27;40.37;;;;;;;3.06;67.89;98992.71;123996;1101;64905;-89
2021/03/19 08:53:03;;;;;;;67.40;45.07;;;;;;;3.02;68.60;98996.36;123881;1102;65000;-88
2021/03/19 08:55:31;;;;;;;73.73;47.43;;;;;;;3.21;68.61;98991.27;124046;1102;64904;-88
2021/03/19 08:58:26;;;;;;;70.43;47.07;;;;;;;3.46;68.92;98983.31;124187;1105;64991;-88
2021/03/19 09:00:58;;;;;;;72.57;47.43;;;;;;;3.74;68.41;98985.75;123819;1102;64969;-85
2021/03/19 09:03:37;;;;;;;73.57;46.77;;;;;;;4.05;67.85;98981.88;124105;1102;64915;-86
2021/03/19 09:06:08;;;;;;;73.55;48.10;;;;;;;4.42;68.04;98983.84;124035;1102;64930;-84
2021/03/19 09:08:46;;;;;;;68.67;47.70;;;;;;;4.73;67.64;98983.39;124005;1102;65227;-87
2021/03/19 09:11:16;;;;;;;63.90;44.90;;;;;;;4.97;66.71;98981.45;124068;1102;64888;-86
2021/03/19 09:14:00;;;;;;;;;;;;;;;5.05;66.63;98979.36;123968;1102;64933;-86
2021/03/19 09:16:44;;;;;;;68.17;42.20;;;;;;;5.04;65.92;98979.41;123931;1102;64869;-86
2021/03/19 09:19:29;;;;;;;63.00;41.10;;;;;;;5.06;66.06;98985.50;123901;1102;65297;-87
2021/03/19 09:22:21;;;;;;;61.93;38.87;;;;;;;5.11;65.61;98970.30;123948;1102;65078;-85
2021/03/19 09:25:14;;;;;;;61.13;41.10;;;;;;;5.01;65.55;98977.77;123904;1102;64893;-86
2021/03/19 09:27:45;;;;;;;55.73;38.50;;;;;;;4.96;65.23;98974.47;123532;1102;64992;-86
2021/03/19 09:30:33;;;;;;;54.70;35.17;;;;;;;4.93;64.64;98971.13;123531;1105;64918;-86
2021/03/19 09:33:01;;;;;;;37.27;27.83;;;;;;;4.84;64.55;98981.16;123553;1102;64998;-86
2021/03/19 09:35:41;;;;;;;37.07;26.30;;;;;;;4.89;64.04;98980.94;123629;1102;64946;-86
2021/03/19 09:38:13;;;;;;;;;;;;;;;4.75;63.00;98978.91;123910;1102;64914;-87
2021/03/19 09:40:47;;;;;;;42.75;30.95;;;;;;;4.66;62.98;98978.44;123627;1102;64905;-87
2021/03/19 09:43:36;;;;;;;43.33;32.13;;;;;;;4.41;62.92;98976.86;123769;1102;64937;-87
2021/03/19 09:46:14;;;;;;;44.37;33.07;;;;;;;4.51;63.88;98978.19;124011;1102;64877;-87
2021/03/19 09:49:00;;;;;;;38.30;27.93;;;;;;;4.57;62.74;98980.55;123549;1102;65281;-87
2021/03/19 09:51:40;;;;;;;47.10;33.30;;;;;;;4.46;63.15;98974.88;123902;1102;64943;-86
2021/03/19 09:54:25;;;;;;;40.35;28.40;;;;;;;4.44;62.99;98979.36;123886;1102;64882;-86
2021/03/19 09:56:55;;;;;;;28.10;21.47;;;;;;;4.53;62.46;98973.71;123919;1102;64927;-85
2021/03/19 09:59:29;;;;;;;28.73;21.82;;;;;;;4.80;61.76;98973.44;123933;1102;64885;-88
2021/03/19 10:01:57;;;;;;;22.47;17.43;;;;;;;4.81;60.28;98967.22;123558;1105;64892;-88
2021/03/19 10:04:31;;;;;;;27.57;22.23;;;;;;;4.81;60.93;98972.50;123559;1102;64908;-88
2021/03/19 10:06:59;;;;;;;32.35;24.25;;;;;;;5.00;61.11;98972.54;123539;1102;64891;-88
2021/03/19 10:09:46;;;;;;;35.90;27.30;;;;;;;5.01;60.64;98967.20;123468;1102;64905;-87
2021/03/19 10:12:21;;;;;;;34.83;27.03;;;;;;;4.98;61.49;98975.27;123530;1101;64896;-87
2021/03/19 10:14:51;;;;;;;31.70;23.70;;;;;;;4.90;59.58;98966.83;123762;1102;64930;-88
2021/03/19 10:17:26;;;;;;;33.83;25.70;;;;;;;4.64;59.58;98975.89;123891;1102;64985;-88
2021/03/19 10:20:11;;;;;;;34.07;25.77;;;;;;;4.28;60.17;98986.20;123810;1102;64908;-87
2021/03/19 10:22:53;;;;;;;36.27;25.30;;;;;;;4.03;60.19;98979.31;123850;1102;64905;-87
2021/03/19 10:25:29;;;;;;;35.00;24.47;;;;;;;3.65;59.71;98986.09;123449;1105;64985;-87
2021/03/19 10:28:00;;;;;;;35.17;25.50;;;;;;;3.40;60.17;98989.69;123821;1102;65133;-89
2021/03/19 10:30:48;;;;;;;39.00;26.17;;;;;;;3.34;60.67;98989.89;123524;1102;64908;-88
2021/03/19 10:33:18;;;;;;;35.03;26.07;;;;;;;3.49;61.24;98991.09;123442;1105;64955;-89
2021/03/19 10:35:57;;;;;;;37.63;27.00;;;;;;;3.69;61.36;98987.70;123596;1102;65285;-87
2021/03/19 10:38:59;;;;;;;50.13;30.13;;;;;;;3.91;61.71;98985.07;123515;1105;64917;-88
2021/03/19 10:41:36;;;;;;;43.30;28.27;;;;;;;4.18;61.35;98976.02;123491;1102;65454;-92
2021/03/19 10:44:11;;;;;;;37.77;26.27;;;;;;;4.47;61.39;98973.95;123887;1101;64875;-87
2021/03/19 10:46:45;;;;;;;35.83;25.30;;;;;;;4.88;60.84;98970.47;123909;1102;64891;-88
2021/03/19 10:49:28;;;;;;;32.90;23.40;;;;;;;5.33;60.47;98966.67;123937;1102;64911;-88
2021/03/19 10:52:04;;;;;;;27.57;18.63;;;;;;;5.50;58.36;98979.95;123796;1101;64901;-87
2021/03/19 10:54:40;;;;;;;24.60;18.77;;;;;;;5.22;59.71;98977.73;123934;1102;64886;-79
2021/03/19 10:57:14;;;;;;;23.03;16.90;;;;;;;5.14;59.98;98982.52;123624;1102;64914;-80
2021/03/19 10:59:42;;;;;;;22.07;17.53;;;;;;;5.00;60.87;98977.83;123803;1102;64914;-80
2021/03/19 11:02:11;;;;;;;19.80;15.50;;;;;;;5.11;60.77;98972.05;123797;1102;64928;-80
2021/03/19 11:04:48;;;;;;;22.85;16.62;;;;;;;5.06;60.72;98974.93;123815;1102;64898;-80
2021/03/19 11:07:25;;;;;;;22.75;16.65;;;;;;;4.93;60.13;98979.89;123878;1101;64860;-80
2021/03/19 11:10:14;;;;;;;22.07;17.03;;;;;;;4.82;61.13;98979.52;123845;1102;64905;-80
2021/03/19 11:13:17;;;;;;;20.90;16.93;;;;;;;4.65;60.25;98982.02;123794;1102;64936;-81
2021/03/19 11:15:46;;;;;;;20.87;16.10;;;;;;;4.61;61.03;98974.23;123811;1102;64876;-79
2021/03/19 11:18:13;;;;;;;24.77;16.70;;;;;;;4.69;59.95;98978.34;123423;1102;64956;-80
2021/03/19 11:20:41;;;;;;;22.43;17.20;;;;;;;4.71;61.10;98979.10;123777;1102;64942;-80
2021/03/19 11:23:32;;;;;;;23.30;17.65;;;;;;;4.91;60.79;98978.25;123422;1102;64917;-80
2021/03/19 11:26:00;;;;;;;20.90;16.70;;;;;;;5.23;60.72;98968.87;123735;1102;64949;-80
2021/03/19 11:28:41;;;;;;;20.07;15.67;;;;;;;5.47;59.77;98970.38;123742;1102;64905;-80
2021/03/19 11:31:29;;;;;;;21.43;17.97;;;;;;;5.48;59.74;98963.33;123419;1102;65273;-81
2021/03/19 11:34:14;;;;;;;26.20;18.20;;;;;;;5.48;59.96;98965.97;123826;1102;64949;-79
2021/03/19 11:37:06;;;;;;;22.27;16.77;;;;;;;5.40;59.97;98966.33;123745;1102;64930;-78
2021/03/19 11:39:42;;;;;;;31.00;22.70;;;;;;;5.24;60.35;98973.25;123367;1102;65015;-79
2021/03/19 11:42:12;;;;;;;28.80;23.27;;;;;;;5.24;60.69;98958.25;123763;1102;64899;-79
2021/03/19 11:44:40;;;;;;;24.80;18.40;;;;;;;5.35;60.52;98967.47;123753;1102;64979;-79
2021/03/19 11:47:21;;;;;;;32.40;22.30;;;;;;;5.51;60.21;98963.17;123748;1102;64934;-80
2021/03/19 11:49:50;;;;;;;23.20;17.30;;;;;;;5.71;60.11;98965.75;123827;1102;64975;-80